Time;durP1;ratioP1;P1;durP2;ratioP2;P2;SDS_P1;SDS_P2;PMS_P1;PMS_P2;Temp;Humidity;BMP_temperature;BMP_pressure;BME280_temperature;BME280_humidity;BME280_pressure;Samples;Min_cycle;Max_cycle;Signal;HPM_P1;HPM_P2
2022/08/02 00:00:46;;;;;;;;;;;;;;;23.58;60.48;99592.59;4453983;32;31080;-84
2022/08/02 00:03:11;;;;;;;;;;;;;;;23.70;60.48;99587.19;4439034;32;27962;-83
2022/08/02 00:05:36;;;;;;;;;;;;;;;23.56;60.47;99583.06;4438389;32;28509;-83
2022/08/02 00:08:02;;;;;;;;;;;;;;;23.37;60.47;99582.97;4439482;32;20008;-83
2022/08/02 00:10:27;;;;;;;;;;;;;;;23.05;60.45;99586.62;4443705;32;20054;-83
2022/08/02 00:12:52;;;;;;;;;;;;;;;22.99;60.44;99592.47;4453937;32;19989;-83
2022/08/02 00:15:17;;;;;;;;;;;;;;;22.92;60.44;99584.16;4453869;32;19970;-83
2022/08/02 00:17:43;;;;;;;;;;;;;;;22.88;60.44;99587.22;4452547;32;28399;-83
2022/08/02 00:20:09;;;;;;;;;;;;;;;22.78;60.43;99583.66;4424468;32;19989;-83
2022/08/02 00:22:34;;;;;;;;;;;;;;;22.92;60.44;99584.16;4434041;32;20005;-83
2022/08/02 00:24:59;;;;;;;;;;;;;;;22.72;60.42;99586.84;4438875;32;26491;-83
2022/08/02 00:27:24;;;;;;;;;;;;;;;22.59;60.43;99581.72;4453064;32;29510;-83
2022/08/02 00:29:50;;;;;;;;;;;;;;;22.55;60.41;99591.75;4438984;32;22216;-83
2022/08/02 00:32:16;;;;;;;;;;;;;;;22.63;60.43;99586.62;4453685;32;19989;-83
2022/08/02 00:34:41;;;;;;;;;;;;;;;22.60;60.42;99588.69;4440573;32;20021;-83
2022/08/02 00:37:06;;;;;;;;;;;;;;;22.48;60.43;99587.94;4440892;32;26155;-83
2022/08/02 00:39:31;;;;;;;;;;;;;;;22.17;60.41;99589.63;4441252;32;20008;-83
2022/08/02 00:41:57;;;;;;;;;;;;;;;22.50;60.42;99598.41;4454670;32;25689;-83
2022/08/02 00:44:22;;;;;;;;;;;;;;;22.33;60.41;99599.81;4454841;32;25481;-83
2022/08/02 00:46:47;;;;;;;;;;;;;;;22.63;60.43;99589.28;4455085;32;19992;-83
2022/08/02 00:49:12;;;;;;;;;;;;;;;22.54;60.42;99599.84;4453662;32;21030;-83
2022/08/02 00:51:38;;;;;;;;;;;;;;;22.73;60.44;99589.37;4455275;32;19996;-83
2022/08/02 00:54:03;;;;;;;;;;;;;;;22.59;60.43;99601.12;4455498;32;19987;-83
2022/08/02 00:56:28;;;;;;;;;;;;;;;22.30;60.40;99598.25;4455308;32;20411;-83
2022/08/02 00:58:54;;;;;;;;;;;;;;;22.07;60.39;99599.31;4440547;32;21945;-83
2022/08/02 01:01:19;;;;;;;;;;;;;;;22.26;60.41;99602.13;4440285;32;24827;-83
2022/08/02 01:03:44;;;;;;;;;;;;;;;22.33;60.41;99603.31;4440998;32;19999;-83
2022/08/02 01:06:09;;;;;;;;;;;;;;;22.29;60.41;99606.34;4440989;32;20269;-83
2022/08/02 01:08:36;;;;;;;;;;;;;;;22.28;60.41;99610.81;4454476;32;24588;-83
2022/08/02 01:11:02;;;;;;;;;;;;;;;22.22;60.40;99600.69;4455028;32;19985;-83
2022/08/02 01:13:27;;;;;;;;;;;;;;;22.18;60.40;99601.91;4454463;32;27273;-83
2022/08/02 01:15:57;;;;;;;;;;;;;;;22.23;60.39;99599.72;4453086;32;28117;-83
2022/08/02 01:18:34;;;;;;;;;;;;;;;22.39;60.41;99606.41;4444055;32;19988;-83
2022/08/02 01:21:02;;;;;;;;;;;;;;;22.27;60.41;99595.88;4440830;32;20005;-83
2022/08/02 01:23:32;;;;;;;;;;;;;;;22.05;60.39;99593.31;4454976;32;20277;-83
2022/08/02 01:25:57;;;;;;;;;;;;;;;21.53;60.36;99600.13;4438228;32;20034;-83
2022/08/02 01:28:27;;;;;;;;;;;;;;;21.62;60.38;99603.84;4453679;32;19985;-83
2022/08/02 01:30:54;;;;;;;;;;;;;;;21.90;60.38;99610.41;4440915;32;19996;-83
2022/08/02 01:33:20;;;;;;;;;;;;;;;21.79;60.38;99610.44;4454983;32;20360;-83
2022/08/02 01:35:46;;;;;;;;;;;;;;;21.87;60.38;99608.84;4439105;32;19986;-84
2022/08/02 01:38:31;;;;;;;;;;;;;;;22.10;60.40;99609.66;4436257;32;19995;-83
2022/08/02 01:40:57;;;;;;;;;;;;;;;22.22;60.40;99611.28;4440789;32;19989;-84
2022/08/02 01:43:22;;;;;;;;;;;;;;;22.06;60.39;99610.88;4440647;32;19998;-84
2022/08/02 01:45:48;;;;;;;;;;;;;;;21.91;60.38;99609.44;4424054;32;19996;-84
2022/08/02 01:48:13;;;;;;;;;;;;;;;22.15;60.40;99619.87;4432080;32;20001;-87
2022/08/02 01:50:38;;;;;;;;;;;;;;;22.05;60.39;99614.50;4438612;32;26630;-86
2022/08/02 01:53:05;;;;;;;;;;;;;;;21.80;60.39;99623.56;4440773;32;20046;-87
2022/08/02 01:55:31;;;;;;;;;;;;;;;21.68;60.38;99624.53;4440527;32;20029;-87
2022/08/02 01:57:58;;;;;;;;;;;;;;;21.83;60.38;99631.28;4438071;32;19982;-89
2022/08/02 02:00:24;;;;;;;;;;;;;;;21.64;60.37;99636.34;4434300;32;20019;-89
2022/08/02 02:02:49;;;;;;;;;;;;;;;21.68;60.37;99633.31;4437940;32;20019;-89
2022/08/02 02:05:18;;;;;;;;;;;;;;;21.67;60.37;99631.66;4434595;32;20310;-89
2022/08/02 02:07:44;;;;;;;;;;;;;;;21.72;60.37;99632.12;4437843;32;20000;-86
2022/08/02 02:10:11;;;;;;;;;;;;;;;21.73;60.37;99635.59;4430981;32;20001;-87
2022/08/02 02:12:36;;;;;;;;;;;;;;;21.65;60.38;99638.88;4438259;32;19985;-88
2022/08/02 02:15:01;;;;;;;;;;;;;;;21.70;60.38;99639.34;4439918;32;24510;-87
2022/08/02 02:17:26;;;;;;;;;;;;;;;21.57;60.37;99643.94;4438044;32;19962;-86
2022/08/02 02:19:52;;;;;;;;;;;;;;;21.56;60.37;99647.56;4440499;32;26025;-88
2022/08/02 02:22:17;;;;;;;;;;;;;;;21.44;60.36;99646.72;4441354;32;20001;-88
2022/08/02 02:24:42;;;;;;;;;;;;;;;21.43;60.36;99649.47;4455606;32;19977;-87
2022/08/02 02:27:07;;;;;;;;;;;;;;;21.40;60.36;99645.25;4455215;32;23327;-87
2022/08/02 02:29:34;;;;;;;;;;;;;;;21.37;60.35;99645.50;4441381;32;20039;-89
2022/08/02 02:31:59;;;;;;;;;;;;;;;21.47;60.36;99634.19;4441413;32;19996;-88
2022/08/02 02:34:28;;;;;;;;;;;;;;;21.47;60.35;99631.53;4441519;32;19965;-88
2022/08/02 02:36:54;;;;;;;;;;;;;;;21.26;60.35;99639.34;4441628;32;19980;-88
2022/08/02 02:39:20;;;;;;;;;;;;;;;21.23;60.34;99639.56;4455741;32;20294;-87
2022/08/02 02:41:45;;;;;;;;;;;;;;;21.27;60.35;99648.97;4441572;32;20036;-86
2022/08/02 02:44:12;;;;;;;;;;;;;;;21.42;60.35;99653.09;4441630;32;19965;-87
2022/08/02 02:46:37;;;;;;;;;;;;;;;21.10;60.34;99655.56;4441393;32;20040;-86
2022/08/02 02:49:02;;;;;;;;;;;;;;;21.07;60.34;99659.28;4441127;32;22441;-86
2022/08/02 02:51:28;;;;;;;;;;;;;;;21.01;60.34;99658.91;4454938;32;30658;-88
2022/08/02 02:53:53;;;;;;;;;;;;;;;21.20;60.35;99658.34;4441439;32;20322;-89
2022/08/02 02:56:18;;;;;;;;;;;;;;;21.16;60.34;99649.78;4440552;32;20334;-89
2022/08/02 02:58:43;;;;;;;;;;;;;;;21.37;60.35;99637.56;4455442;32;19977;-89
2022/08/02 03:01:28;;;;;;;;;;;;;;;21.15;60.34;99640.16;4441278;32;19997;-89
2022/08/02 03:04:00;;;;;;;;;;;;;;;21.25;60.35;99635.84;4441658;32;19968;-88
2022/08/02 03:06:25;;;;;;;;;;;;;;;21.25;60.35;99635.03;4441523;32;20052;-89
2022/08/02 03:08:51;;;;;;;;;;;;;;;21.12;60.34;99628.00;4455762;32;19986;-88
2022/08/02 03:11:16;;;;;;;;;;;;;;;21.32;60.36;99630.94;4454384;32;19985;-88
2022/08/02 03:13:41;;;;;;;;;;;;;;;21.29;60.35;99618.78;4442763;32;19973;-89
2022/08/02 03:16:06;;;;;;;;;;;;;;;21.01;60.34;99625.34;4457014;32;19988;-87
2022/08/02 03:18:32;;;;;;;;;;;;;;;21.00;60.33;99623.66;4455550;32;20001;-89
2022/08/02 03:21:05;;;;;;;;;;;;;;;21.05;60.33;99623.28;4441424;32;20367;-89
2022/08/02 03:23:30;;;;;;;;;;;;;;;21.27;60.35;99618.06;4441203;32;19973;-88
2022/08/02 03:25:55;;;;;;;;;;;;;;;20.92;60.32;99626.06;4455281;32;19969;-89
2022/08/02 03:28:21;;;;;;;;;;;;;;;20.83;60.32;99630.25;4441178;32;20354;-91
2022/08/02 03:30:46;;;;;;;;;;;;;;;20.89;60.32;99636.88;4455451;32;19985;-86
2022/08/02 03:33:11;;;;;;;;;;;;;;;20.93;60.32;99640.13;4441219;32;19977;-86
2022/08/02 03:35:37;;;;;;;;;;;;;;;20.86;60.33;99636.28;4441072;32;20373;-85
2022/08/02 03:38:02;;;;;;;;;;;;;;;20.83;60.32;99642.66;4454007;32;20003;-86
2022/08/02 03:40:28;;;;;;;;;;;;;;;20.88;60.33;99645.78;4454668;32;26211;-87
2022/08/02 03:42:53;;;;;;;;;;;;;;;20.84;60.32;99646.97;4440190;32;28671;-87
2022/08/02 03:45:18;;;;;;;;;;;;;;;20.96;60.33;99648.66;4441008;32;20247;-87
2022/08/02 03:47:43;;;;;;;;;;;;;;;21.02;60.33;99650.00;4441092;32;20109;-87
2022/08/02 03:50:15;;;;;;;;;;;;;;;21.09;60.34;99648.59;4440773;32;19985;-88
2022/08/02 03:52:41;;;;;;;;;;;;;;;20.84;60.32;99650.47;4453851;32;19996;-87
2022/08/02 03:55:06;;;;;;;;;;;;;;;20.94;60.33;99649.75;4441116;32;19981;-88
2022/08/02 03:57:32;;;;;;;;;;;;;;;21.05;60.33;99657.69;4428085;32;20001;-87
2022/08/02 03:59:57;;;;;;;;;;;;;;;20.88;60.33;99658.16;4441054;32;20005;-87
2022/08/02 04:02:22;;;;;;;;;;;;;;;20.80;60.32;99659.56;4440451;32;20297;-89
2022/08/02 04:04:47;;;;;;;;;;;;;;;20.99;60.33;99668.75;4440452;32;20715;-89
2022/08/02 04:07:13;;;;;;;;;;;;;;;20.69;60.31;99662.19;4440573;32;19992;-87
2022/08/02 04:09:38;;;;;;;;;;;;;;;20.79;60.32;99665.81;4439601;32;20476;-86
2022/08/02 04:12:03;;;;;;;;;;;;;;;20.95;60.34;99660.22;4440141;32;28035;-87
2022/08/02 04:14:28;;;;;;;;;;;;;;;20.96;60.33;99666.34;4428141;32;19977;-87
2022/08/02 04:16:55;;;;;;;;;;;;;;;20.94;60.33;99668.28;4441405;32;20008;-91
2022/08/02 04:19:25;;;;;;;;;;;;;;;21.05;60.33;99677.06;4441510;32;19985;-92
2022/08/02 04:21:50;;;;;;;;;;;;;;;21.09;60.34;99667.97;4441097;32;19985;-90
2022/08/02 04:24:16;;;;;;;;;;;;;;;21.17;60.33;99677.09;4441112;32;20306;-91
2022/08/02 04:26:42;;;;;;;;;;;;;;;21.13;60.33;99680.00;4440935;32;20001;-90
2022/08/02 04:29:08;;;;;;;;;;;;;;;21.10;60.34;99676.75;4440520;32;20028;-87
2022/08/02 04:31:33;;;;;;;;;;;;;;;21.22;60.34;99673.13;4439744;32;19981;-86
2022/08/02 04:33:58;;;;;;;;;;;;;;;21.34;60.35;99676.69;4452816;32;19973;-87
2022/08/02 04:36:23;;;;;;;;;;;;;;;21.49;60.36;99678.12;4453485;32;28807;-86
2022/08/02 04:38:49;;;;;;;;;;;;;;;21.48;60.36;99679.09;4452958;32;20004;-87
2022/08/02 04:41:14;;;;;;;;;;;;;;;21.69;60.36;99676.56;4440047;32;19988;-87
2022/08/02 04:43:39;;;;;;;;;;;;;;;21.65;60.37;99672.47;4454313;32;19991;-87
2022/08/02 04:46:04;;;;;;;;;;;;;;;21.81;60.37;99670.28;4430054;32;20443;-88
2022/08/02 04:48:30;;;;;;;;;;;;;;;21.83;60.37;99675.47;4438916;32;19992;-87
2022/08/02 04:50:55;;;;;;;;;;;;;;;22.01;60.38;99674.00;4440319;32;19977;-87
2022/08/02 04:53:20;;;;;;;;;;;;;;;21.99;60.38;99665.31;4430585;32;19984;-88
2022/08/02 04:55:45;;;;;;;;;;;;;;;22.10;60.39;99670.63;4424241;32;26404;-87
2022/08/02 04:58:11;;;;;;;;;;;;;;;22.04;60.38;99677.28;4438642;32;19981;-87
2022/08/02 05:00:36;;;;;;;;;;;;;;;22.24;60.39;99688.06;4424518;32;20277;-87
2022/08/02 05:03:01;;;;;;;;;;;;;;;22.31;60.40;99682.16;4438263;32;19973;-87
2022/08/02 05:05:27;;;;;;;;;;;;;;;22.33;60.40;99693.47;4438241;32;19997;-87
2022/08/02 05:07:52;;;;;;;;;;;;;;;22.51;60.41;99695.59;4424466;32;20021;-86
2022/08/02 05:10:17;;;;;;;;;;;;;;;22.73;60.42;99692.84;4437866;32;25042;-86
2022/08/02 05:12:43;;;;;;;;;;;;;;;22.92;60.43;99700.12;4424429;32;19969;-86
2022/08/02 05:15:08;;;;;;;;;;;;;;;23.08;60.43;99699.69;4436506;32;26306;-86
2022/08/02 05:17:33;;;;;;;;;;;;;;;23.22;60.44;99696.72;4424245;32;19993;-86
2022/08/02 05:19:58;;;;;;;;;;;;;;;23.18;60.44;99695.25;4438836;32;19977;-86
2022/08/02 05:22:24;;;;;;;;;;;;;;;23.14;60.44;99699.16;4439873;32;27108;-86
2022/08/02 05:24:49;;;;;;;;;;;;;;;23.30;60.45;99707.50;4425703;32;29204;-86
2022/08/02 05:27:14;;;;;;;;;;;;;;;23.58;60.46;99716.63;4439804;32;30287;-86
2022/08/02 05:29:39;;;;;;;;;;;;;;;23.57;60.46;99720.28;4440580;32;20325;-86
2022/08/02 05:32:04;;;;;;;;;;;;;;;23.68;60.47;99714.03;4426035;32;21608;-86
2022/08/02 05:34:30;;;;;;;;;;;;;;;23.52;60.46;99714.47;4440359;32;19984;-86
2022/08/02 05:36:55;;;;;;;;;;;;;;;23.50;60.46;99717.28;4426375;32;20299;-86
2022/08/02 05:39:20;;;;;;;;;;;;;;;23.61;60.47;99721.69;4426406;32;20008;-86
2022/08/02 05:41:46;;;;;;;;;;;;;;;23.86;60.48;99720.38;4439818;32;25428;-86
2022/08/02 05:44:11;;;;;;;;;;;;;;;24.12;60.49;99726.91;4440231;32;20019;-87
2022/08/02 05:46:36;;;;;;;;;;;;;;;24.32;60.50;99725.16;4438475;32;24114;-86
2022/08/02 05:49:03;;;;;;;;;;;;;;;24.18;60.49;99733.53;4455825;32;19973;-86
2022/08/02 05:51:32;;;;;;;;;;;;;;;24.24;60.49;99732.13;4455790;32;20383;-86
2022/08/02 05:54:11;;;;;;;;;;;;;;;24.45;60.51;99725.75;4441681;32;20017;-86
2022/08/02 05:56:37;;;;;;;;;;;;;;;24.50;60.51;99728.00;4441748;32;19993;-86
2022/08/02 05:59:21;;;;;;;;;;;;;;;24.66;60.52;99730.12;4441844;32;19969;-86
2022/08/02 06:01:47;;;;;;;;;;;;;;;24.79;60.53;99728.00;4455923;32;20056;-87
2022/08/02 06:04:14;;;;;;;;;;;;;;;25.02;60.54;99721.44;4455099;32;20005;-86
2022/08/02 06:06:41;;;;;;;;;;;;;;;24.99;60.54;99727.06;4442008;32;19989;-86
2022/08/02 06:09:14;;;;;;;;;;;;;;;25.29;60.55;99725.19;4441833;32;19984;-86
2022/08/02 06:11:42;;;;;;;;;;;;;;;25.48;60.56;99729.63;4456313;32;19987;-86
2022/08/02 06:14:08;;;;;;;;;;;;;;;25.71;60.57;99725.66;4441891;32;20009;-86
2022/08/02 06:16:33;;;;;;;;;;;;;;;25.78;60.58;99721.41;4456153;32;20003;-86
2022/08/02 06:18:59;;;;;;;;;;;;;;;25.80;60.58;99724.81;4456215;32;19977;-86
2022/08/02 06:21:24;;;;;;;;;;;;;;;25.74;60.57;99729.84;4456036;32;20302;-86
2022/08/02 06:23:49;;;;;;;;;;;;;;;25.83;60.57;99719.16;4441733;32;19993;-86
2022/08/02 06:26:15;;;;;;;;;;;;;;;26.11;60.60;99719.16;4441762;32;20007;-86
2022/08/02 06:28:40;;;;;;;;;;;;;;;26.05;60.59;99723.28;4428483;32;29498;-86
2022/08/02 06:31:05;;;;;;;;;;;;;;;26.25;60.61;99724.81;4427744;32;30663;-86
2022/08/02 06:33:30;;;;;;;;;;;;;;;26.32;60.61;99733.09;4455393;32;20363;-86
2022/08/02 06:36:16;;;;;;;;;;;;;;;26.39;60.60;99722.69;4441108;32;23705;-86
2022/08/02 06:39:10;;;;;;;;;;;;;;;26.58;60.62;99727.88;4455126;32;19977;-86
2022/08/02 06:41:38;;;;;;;;;;;;;;;26.84;60.63;99725.28;4445053;32;19978;-86
2022/08/02 06:44:04;;;;;;;;;;;;;;;26.85;60.63;99729.63;4441697;32;19984;-86
2022/08/02 06:46:29;;;;;;;;;;;;;;;27.07;60.64;99725.69;4440606;32;32466;-87
2022/08/02 06:48:54;;;;;;;;;;;;;;;27.16;60.65;99730.06;4441650;32;20293;-86
2022/08/02 06:51:19;;;;;;;;;;;;;;;27.07;60.64;99726.50;4441835;32;19991;-86
2022/08/02 06:53:45;;;;;;;;;;;;;;;27.28;60.66;99730.69;4454022;32;19993;-86
2022/08/02 06:56:10;;;;;;;;;;;;;;;27.26;60.64;99733.50;4455649;32;19972;-86
2022/08/02 06:58:35;;;;;;;;;;;;;;;27.53;60.67;99727.16;4441445;32;19981;-86
2022/08/02 07:01:00;;;;;;;;;;;;;;;27.74;60.67;99724.97;4440934;32;20385;-86
2022/08/02 07:03:25;;;;;;;;;;;;;;;27.87;60.68;99729.88;4440589;32;33567;-86
2022/08/02 07:05:51;;;;;;;;;;;;;;;27.93;60.69;99723.06;4455237;32;20318;-85
2022/08/02 07:08:16;;;;;;;;;;;;;;;27.99;60.69;99728.59;4441407;32;20259;-86
2022/08/02 07:10:42;;;;;;;;;;;;;;;28.00;60.69;99727.59;4455556;32;19970;-86
2022/08/02 07:13:07;;;;;;;;;;;;;;;27.91;60.69;99719.69;4441347;32;19997;-85
2022/08/02 07:15:33;;;;;;;;;;;;;;;28.10;60.70;99722.09;4441422;32;20031;-86
2022/08/02 07:17:58;;;;;;;;;;;;;;;28.07;60.70;99722.44;4455443;32;19977;-86
2022/08/02 07:20:23;;;;;;;;;;;;;;;28.35;60.71;99721.19;4455189;32;19973;-86
2022/08/02 07:22:48;;;;;;;;;;;;;;;28.59;60.72;99717.72;4455273;32;19969;-86
2022/08/02 07:25:13;;;;;;;;;;;;;;;28.72;60.73;99719.94;4441277;32;19985;-86
2022/08/02 07:27:39;;;;;;;;;;;;;;;28.83;60.73;99724.13;4440392;32;31613;-86
2022/08/02 07:30:04;;;;;;;;;;;;;;;28.71;60.73;99718.25;4441231;32;20242;-86
2022/08/02 07:32:30;;;;;;;;;;;;;;;28.88;60.74;99719.16;4441203;32;19997;-86
2022/08/02 07:34:56;;;;;;;;;;;;;;;28.87;60.74;99712.97;4441160;32;19985;-86
2022/08/02 07:37:21;;;;;;;;;;;;;;;29.03;60.74;99701.38;4441192;32;20359;-86
2022/08/02 07:39:47;;;;;;;;;;;;;;;28.98;60.74;99701.06;4441107;32;19989;-86
2022/08/02 07:42:12;;;;;;;;;;;;;;;29.16;60.75;99703.56;4454428;32;29108;-86
2022/08/02 07:44:37;;;;;;;;;;;;;;;29.28;60.76;99700.34;4451956;32;20481;-85
2022/08/02 07:47:02;;;;;;;;;;;;;;;29.31;60.77;99700.00;4454592;32;25736;-85
2022/08/02 07:49:28;;;;;;;;;;;;;;;29.43;60.77;99702.31;4441070;32;20652;-85
2022/08/02 07:51:53;;;;;;;;;;;;;;;29.46;60.77;99699.34;4453814;32;19989;-86
2022/08/02 07:54:19;;;;;;;;;;;;;;;29.60;60.77;99695.97;4455557;32;20366;-85
2022/08/02 07:56:44;;;;;;;;;;;;;;;29.66;60.78;99702.47;4453900;32;19981;-85
2022/08/02 07:59:09;;;;;;;;;;;;;;;29.58;60.78;99703.34;4454377;32;30827;-85
2022/08/02 08:01:35;;;;;;;;;;;;;;;29.79;60.78;99694.69;4455147;32;19999;-86
2022/08/02 08:04:00;;;;;;;;;;;;;;;29.81;60.79;99695.34;4428032;32;20030;-86
2022/08/02 08:06:25;;;;;;;;;;;;;;;29.92;60.79;99705.72;4454783;32;20018;-86
2022/08/02 08:08:50;;;;;;;;;;;;;;;29.89;60.79;99706.06;4454942;32;20023;-85
2022/08/02 08:11:16;;;;;;;;;;;;;;;29.88;60.80;99702.56;4454849;32;20025;-85
2022/08/02 08:13:41;;;;;;;;;;;;;;;30.05;60.80;99708.72;4461185;32;20337;-86
2022/08/02 08:16:06;;;;;;;;;;;;;;;30.25;60.80;99706.41;4468551;32;25760;-86
2022/08/02 08:18:31;;;;;;;;;;;;;;;30.41;60.81;99711.69;4468436;32;27999;-85
2022/08/02 08:20:57;;;;;;;;;;;;;;;30.38;60.81;99712.06;4470407;32;20023;-86
2022/08/02 08:23:22;;;;;;;;;;;;;;;30.73;60.83;99704.44;4469518;32;29560;-85
2022/08/02 08:25:47;;;;;;;;;;;;;;;30.88;60.83;99699.97;4470322;32;20348;-85
2022/08/02 08:28:12;;;;;;;;;;;;;;;31.03;60.85;99702.69;4468865;32;20031;-85
2022/08/02 08:30:38;;;;;;;;;;;;;;;31.26;60.86;99697.31;4455185;32;30636;-85
2022/08/02 08:33:04;;;;;;;;;;;;;;;31.48;60.88;99707.16;4456011;32;20007;-85
2022/08/02 08:35:29;;;;;;;;;;;;;;;31.74;60.89;99702.19;4469472;32;22575;-85
2022/08/02 08:37:54;;;;;;;;;;;;;;;31.57;60.88;99705.19;4469294;32;30454;-85
2022/08/02 08:40:19;;;;;;;;;;;;;;;31.62;60.89;99709.00;4469488;32;28177;-85
2022/08/02 08:42:44;;;;;;;;;;;;;;;31.72;60.89;99704.22;4454972;32;32154;-85
2022/08/02 08:45:10;;;;;;;;;;;;;;;31.75;60.88;99708.41;4469354;32;22579;-86
2022/08/02 08:47:36;;;;;;;;;;;;;;;32.05;60.90;99706.50;4455700;32;19981;-85
2022/08/02 08:50:05;;;;;;;;;;;;;;;32.31;60.91;99719.47;4455728;32;20414;-85
2022/08/02 08:52:32;;;;;;;;;;;;;;;32.52;60.93;99706.03;4469897;32;19993;-84
2022/08/02 08:54:58;;;;;;;;;;;;;;;32.64;60.93;99709.84;4456257;32;19996;-84
2022/08/02 08:57:23;;;;;;;;;;;;;;;32.87;60.94;99703.47;4457743;32;19981;-85
2022/08/02 08:59:48;;;;;;;;;;;;;;;33.03;60.95;99708.59;4456717;32;38423;-85
2022/08/02 09:02:13;;;;;;;;;;;;;;;33.33;60.96;99703.03;4456814;32;32835;-84
2022/08/02 09:04:39;;;;;;;;;;;;;;;33.49;60.97;99705.44;4471802;32;20000;-84
2022/08/02 09:07:04;;;;;;;;;;;;;;;33.28;60.96;99709.81;4457056;32;28770;-85
2022/08/02 09:09:29;;;;;;;;;;;;;;;32.88;60.94;99711.34;4471061;32;31300;-84
2022/08/02 09:11:55;;;;;;;;;;;;;;;32.77;60.94;99705.63;4456984;32;31494;-84
2022/08/02 09:14:27;;;;;;;;;;;;;;;32.72;60.93;99708.91;4457612;32;19989;-84
2022/08/02 09:16:53;;;;;;;;;;;;;;;32.82;60.93;99706.75;4457854;32;20020;-84
2022/08/02 09:19:20;;;;;;;;;;;;;;;32.81;60.93;99710.47;4457614;32;20336;-85
2022/08/02 09:21:45;;;;;;;;;;;;;;;32.75;60.93;99718.47;4457592;32;19992;-84
2022/08/02 09:24:14;;;;;;;;;;;;;;;32.75;60.94;99713.91;4457484;32;19965;-85
2022/08/02 09:26:40;;;;;;;;;;;;;;;32.63;60.93;99721.66;4471780;32;20029;-84
2022/08/02 09:29:05;;;;;;;;;;;;;;;32.65;60.93;99711.56;4457302;32;19988;-84
2022/08/02 09:31:30;;;;;;;;;;;;;;;32.72;60.94;99719.69;4456888;32;27962;-85
2022/08/02 09:33:56;;;;;;;;;;;;;;;32.76;60.94;99712.88;4456545;32;30930;-84
2022/08/02 09:36:22;;;;;;;;;;;;;;;32.82;60.94;99708.62;4457609;32;19980;-85
2022/08/02 09:38:57;;;;;;;;;;;;;;;32.94;60.95;99710.59;4457525;32;20332;-85
2022/08/02 09:41:26;;;;;;;;;;;;;;;33.03;60.95;99718.53;4470519;32;19993;-85
2022/08/02 09:43:51;;;;;;;;;;;;;;;33.24;60.97;99710.41;4444625;32;19988;-85
2022/08/02 09:46:18;;;;;;;;;;;;;;;33.38;60.96;99714.09;4457468;32;20037;-85
2022/08/02 09:48:56;;;;;;;;;;;;;;;33.19;60.96;99713.72;4457404;32;19996;-85
2022/08/02 09:51:23;;;;;;;;;;;;;;;33.11;60.96;99718.41;4471661;32;19989;-85
2022/08/02 09:53:50;;;;;;;;;;;;;;;33.13;60.96;99709.09;4457462;32;19987;-85
2022/08/02 09:56:16;;;;;;;;;;;;;;;33.39;60.96;99704.97;4457429;32;19996;-85
2022/08/02 09:58:41;;;;;;;;;;;;;;;33.60;60.98;99694.09;4471612;32;20036;-85
2022/08/02 10:01:07;;;;;;;;;;;;;;;33.71;60.99;99695.38;4456694;32;27138;-85
2022/08/02 10:03:32;;;;;;;;;;;;;;;33.73;60.99;99693.31;4471527;32;20029;-85
2022/08/02 10:05:59;;;;;;;;;;;;;;;33.73;60.99;99690.63;4456052;32;30146;-85
2022/08/02 10:08:25;;;;;;;;;;;;;;;33.81;61.00;99690.44;4471216;32;20361;-85
2022/08/02 10:10:59;;;;;;;;;;;;;;;33.93;61.00;99694.28;4471508;32;19977;-86
2022/08/02 10:13:35;;;;;;;;;;;;;;;33.78;60.99;99693.53;4471361;32;19988;-85
2022/08/02 10:16:01;;;;;;;;;;;;;;;33.80;61.00;99686.06;4457305;32;20262;-85
2022/08/02 10:18:26;;;;;;;;;;;;;;;33.74;60.99;99692.28;4471426;32;20012;-85
2022/08/02 10:20:52;;;;;;;;;;;;;;;33.80;61.00;99684.19;4471448;32;20246;-86
2022/08/02 10:23:17;;;;;;;;;;;;;;;33.70;60.98;99686.44;4457036;32;19991;-85
2022/08/02 10:25:42;;;;;;;;;;;;;;;33.77;60.99;99684.59;4456387;32;29612;-86
2022/08/02 10:28:07;;;;;;;;;;;;;;;33.65;60.99;99680.81;4457059;32;19988;-85
2022/08/02 10:30:37;;;;;;;;;;;;;;;33.42;60.98;99686.50;4457164;32;20046;-86
2022/08/02 10:33:02;;;;;;;;;;;;;;;33.44;60.97;99675.50;4457162;32;20045;-86
2022/08/02 10:35:29;;;;;;;;;;;;;;;33.51;60.98;99679.06;4457027;32;20250;-85
2022/08/02 10:37:55;;;;;;;;;;;;;;;33.59;60.98;99668.09;4471266;32;20295;-85
2022/08/02 10:40:25;;;;;;;;;;;;;;;33.91;61.00;99672.03;4457132;32;19996;-85
2022/08/02 10:42:54;;;;;;;;;;;;;;;34.22;61.01;99665.28;4457143;32;20441;-85
2022/08/02 10:45:19;;;;;;;;;;;;;;;34.50;61.02;99657.87;4457198;32;20024;-85
2022/08/02 10:48:00;;;;;;;;;;;;;;;34.47;61.02;99658.28;4457244;32;19999;-86
2022/08/02 10:50:44;;;;;;;;;;;;;;;34.46;61.02;99662.03;4469972;32;20011;-86
2022/08/02 10:53:18;;;;;;;;;;;;;;;34.18;61.01;99672.97;4471198;32;19987;-85
2022/08/02 10:55:43;;;;;;;;;;;;;;;33.85;61.00;99670.16;4471137;32;20329;-85
2022/08/02 10:58:15;;;;;;;;;;;;;;;33.80;61.00;99678.81;4456860;32;19997;-86
2022/08/02 11:00:40;;;;;;;;;;;;;;;33.79;61.00;99670.91;4457017;32;20056;-86
2022/08/02 11:03:05;;;;;;;;;;;;;;;33.74;60.99;99673.37;4470585;32;20326;-85
2022/08/02 11:05:31;;;;;;;;;;;;;;;33.75;61.00;99669.66;4456167;32;28356;-86
2022/08/02 11:07:56;;;;;;;;;;;;;;;33.58;60.98;99671.84;4456931;32;20273;-85
2022/08/02 11:10:24;;;;;;;;;;;;;;;33.43;60.98;99669.28;4456259;32;28137;-85
2022/08/02 11:13:06;;;;;;;;;;;;;;;33.37;60.97;99664.69;4471182;32;19985;-86
2022/08/02 11:15:47;;;;;;;;;;;;;;;33.60;60.98;99658.13;4456931;32;20038;-86
2022/08/02 11:18:12;;;;;;;;;;;;;;;33.78;60.99;99642.25;4469536;32;20481;-85
2022/08/02 11:20:37;;;;;;;;;;;;;;;34.02;61.00;99651.72;4470744;32;29848;-85
2022/08/02 11:23:21;;;;;;;;;;;;;;;33.98;61.00;99661.25;4456346;32;32155;-85
2022/08/02 11:25:49;;;;;;;;;;;;;;;33.85;60.99;99668.28;4471000;32;20040;-86
2022/08/02 11:28:15;;;;;;;;;;;;;;;33.57;60.98;99667.47;4456859;32;19989;-85
2022/08/02 11:30:40;;;;;;;;;;;;;;;33.23;60.97;99666.44;4469614;32;20015;-85
2022/08/02 11:33:06;;;;;;;;;;;;;;;33.06;60.95;99669.59;4470985;32;20024;-86
2022/08/02 11:35:32;;;;;;;;;;;;;;;32.98;60.96;99670.59;4470901;32;20253;-85
2022/08/02 11:37:58;;;;;;;;;;;;;;;33.05;60.96;99657.16;4456752;32;19977;-86
2022/08/02 11:40:23;;;;;;;;;;;;;;;33.32;60.97;99658.19;4456756;32;20056;-85
2022/08/02 11:42:49;;;;;;;;;;;;;;;33.34;60.97;99645.34;4455858;32;28825;-86
2022/08/02 11:45:14;;;;;;;;;;;;;;;33.62;61.00;99651.53;4470660;32;19973;-85
2022/08/02 11:47:49;;;;;;;;;;;;;;;33.78;60.99;99653.88;4470836;32;19993;-85
2022/08/02 11:50:14;;;;;;;;;;;;;;;33.72;60.99;99659.25;4470835;32;19984;-85
2022/08/02 11:52:40;;;;;;;;;;;;;;;33.74;60.99;99655.31;4470667;32;20325;-85
2022/08/02 11:55:05;;;;;;;;;;;;;;;33.53;60.98;99648.16;4470729;32;20026;-86
2022/08/02 11:57:31;;;;;;;;;;;;;;;33.46;60.97;99654.56;4456376;32;20103;-86
2022/08/02 11:59:56;;;;;;;;;;;;;;;33.34;60.97;99662.34;4470600;32;19973;-85
2022/08/02 12:02:23;;;;;;;;;;;;;;;33.14;60.97;99656.81;4470145;32;20752;-85
2022/08/02 12:04:52;;;;;;;;;;;;;;;32.90;60.95;99659.97;4470582;32;19976;-85
2022/08/02 12:07:18;;;;;;;;;;;;;;;32.70;60.94;99669.72;4470543;32;20019;-85
2022/08/02 12:09:43;;;;;;;;;;;;;;;32.32;60.92;99662.72;4470666;32;20012;-86
2022/08/02 12:12:08;;;;;;;;;;;;;;;32.09;60.91;99672.78;4456385;32;19968;-85
2022/08/02 12:14:41;;;;;;;;;;;;;;;32.28;60.93;99661.44;4469875;32;26925;-86
2022/08/02 12:19:50;;;;;;;;;;;;;;;32.32;60.92;99656.47;4470564;32;19999;-85
2022/08/02 12:22:16;;;;;;;;;;;;;;;32.59;60.95;99658.41;4470279;32;19989;-86
2022/08/02 12:24:48;;;;;;;;;;;;;;;32.80;60.94;99651.37;4470300;32;20037;-85
2022/08/02 12:27:32;;;;;;;;;;;;;;;33.00;60.96;99657.75;4469108;32;19976;-86
2022/08/02 12:30:02;;;;;;;;;;;;;;;33.05;60.96;99643.66;4471052;32;19988;-85
2022/08/02 12:32:28;;;;;;;;;;;;;;;33.14;60.96;99645.22;4472472;32;19973;-85
2022/08/02 12:35:09;;;;;;;;;;;;;;;33.52;60.98;99633.00;4472392;32;20022;-86
2022/08/02 12:37:35;;;;;;;;;;;;;;;33.99;61.00;99625.09;4458173;32;19997;-86
2022/08/02 12:40:17;;;;;;;;;;;;;;;34.46;61.03;99629.59;4472400;32;20332;-86
2022/08/02 12:42:49;;;;;;;;;;;;;;;34.75;61.04;99623.78;4458012;32;20029;-86
2022/08/02 12:45:14;;;;;;;;;;;;;;;34.98;61.05;99626.06;4457977;32;19981;-86
2022/08/02 12:47:44;;;;;;;;;;;;;;;35.20;61.07;99629.38;4458158;32;20239;-86